Time;durP1;ratioP1;P1;durP2;ratioP2;P2;SDS_P1;SDS_P2;PMS_P1;PMS_P2;Temp;Humidity;BMP_temperature;BMP_pressure;BME280_temperature;BME280_humidity;BME280_pressure;Samples;Min_cycle;Max_cycle;Signal;HPM_P1;HPM_P2
2022/12/29 00:01:52;;;;;;;9.60;4.80;;;;;;;0.41;77.81;100417.25;24495;1335;3026431;-70
2022/12/29 00:04:21;;;;;;;12.00;5.30;;;;;;;0.29;77.57;100417.48;24520;1341;3069584;-70
2022/12/29 00:06:51;;;;;;;14.80;5.50;;;;;;;0.06;78.62;100411.85;24466;1326;3026338;-68
2022/12/29 00:09:21;;;;;;;21.30;6.80;;;;;;;0.21;78.07;100411.47;24473;1336;3049663;-67
2022/12/29 00:11:50;;;;;;;17.80;5.80;;;;;;;0.05;78.86;100409.95;24494;1333;3026953;-71
2022/12/29 00:17:07;;;;;;;16.20;6.40;;;;;;;-0.11;79.54;100410.69;24476;1343;3049712;-68
2022/12/29 00:36:33;;;;;;;10.40;3.70;;;;;;;0.59;76.21;100415.97;24520;1333;3053044;-67
2022/12/29 00:44:44;;;;;;;13.50;4.10;;;;;;;0.10;77.96;100408.05;24505;1343;3049010;-63
2022/12/29 00:47:13;;;;;;;7.30;3.90;;;;;;;0.11;77.83;100413.57;24492;1333;3026201;-64
2022/12/29 00:49:43;;;;;;;9.10;3.60;;;;;;;0.04;78.34;100417.71;24419;1333;3069630;-63
2022/12/29 00:52:12;;;;;;;9.80;4.10;;;;;;;-0.01;78.41;100405.67;24523;1331;3028105;-64
2022/12/29 00:54:44;;;;;;;9.10;4.50;;;;;;;-0.03;78.27;100406.19;24420;1326;3048475;-67
2022/12/29 00:57:13;;;;;;;12.80;4.50;;;;;;;-0.01;78.45;100414.27;24478;1326;3026630;-65
2022/12/29 00:59:42;;;;;;;9.50;3.00;;;;;;;-0.02;78.63;100402.56;24470;1326;3027533;-63
2022/12/29 01:02:11;;;;;;;4.30;2.60;;;;;;;0.59;77.86;100404.59;24450;1333;3049325;-65
2022/12/29 01:04:40;;;;;;;4.10;2.60;;;;;;;1.43;74.72;100406.31;24459;1331;3025802;-65
2022/12/29 01:07:09;;;;;;;6.50;3.40;;;;;;;1.49;73.90;100398.84;24441;1335;3052627;-65
2022/12/29 01:12:44;;;;;;;12.20;4.30;;;;;;;1.34;73.76;100401.02;24290;1341;3068981;-66
2022/12/29 01:15:14;;;;;;;8.10;4.10;;;;;;;1.08;73.83;100397.59;24440;1333;3025869;-63
2022/12/29 01:17:44;;;;;;;7.90;4.00;;;;;;;0.98;73.86;100400.42;24564;1332;3025967;-65
2022/12/29 01:20:14;;;;;;;10.90;4.90;;;;;;;0.93;73.65;100401.66;24454;1327;3027956;-60
2022/12/29 01:22:43;;;;;;;7.70;3.90;;;;;;;0.74;74.33;100396.59;24471;1333;3050251;-64
2022/12/29 01:25:15;;;;;;;12.30;5.10;;;;;;;0.71;74.37;100399.88;24437;1333;3026616;-65
2022/12/29 01:27:44;;;;;;;13.80;5.40;;;;;;;0.62;75.09;100395.79;24538;1331;3026797;-66
2022/12/29 01:30:15;;;;;;;16.70;5.70;;;;;;;0.59;75.10;100398.73;24480;1335;3048804;-67
2022/12/29 01:32:45;;;;;;;16.80;7.00;;;;;;;0.60;74.86;100401.83;24422;1335;3028766;-65
2022/12/29 01:35:14;;;;;;;22.00;8.90;;;;;;;0.55;74.89;100403.74;24513;1333;3029249;-65
2022/12/29 01:37:43;;;;;;;25.60;8.60;;;;;;;0.42;75.41;100407.94;24527;1326;3049255;-65
2022/12/29 01:40:13;;;;;;;16.30;7.20;;;;;;;0.34;75.67;100403.67;24471;1333;3028773;-70
2022/12/29 01:42:42;;;;;;;19.00;7.70;;;;;;;0.35;75.66;100401.26;24534;1336;3028538;-66
2022/12/29 01:45:12;;;;;;;11.00;6.70;;;;;;;0.42;75.20;100408.64;24466;1324;3028555;-70
2022/12/29 01:47:43;;;;;;;11.20;4.90;;;;;;;0.24;76.28;100404.56;24500;1339;3056384;-68
2022/12/29 01:50:15;;;;;;;10.50;4.80;;;;;;;0.13;76.57;100398.73;24444;1333;3027234;-61
2022/12/29 01:52:51;;;;;;;12.80;5.00;;;;;;;0.10;77.13;100402.38;24487;1337;3026832;-66
2022/12/29 01:55:20;;;;;;;8.30;3.60;;;;;;;0.24;76.88;100406.29;24500;1331;3051470;-68
2022/12/29 01:57:50;;;;;;;12.50;4.20;;;;;;;0.99;75.80;100406.77;24511;1335;3030195;-69
2022/12/29 02:00:20;;;;;;;7.30;3.30;;;;;;;1.65;73.74;100409.23;24515;1333;3028241;-67
2022/12/29 02:02:53;;;;;;;8.60;4.10;;;;;;;2.07;73.18;100409.51;24526;1336;3029170;-70
2022/12/29 02:05:24;;;;;;;7.40;4.00;;;;;;;1.85;72.17;100409.91;24528;1342;3026750;-67
2022/12/29 02:07:54;;;;;;;8.60;4.20;;;;;;;1.45;71.80;100417.49;24448;1329;3028233;-71
2022/12/29 02:10:24;;;;;;;10.30;4.70;;;;;;;1.15;73.33;100418.77;24460;1333;3027759;-69
2022/12/29 02:12:53;;;;;;;7.50;3.90;;;;;;;1.06;73.52;100414.34;24436;1342;3049367;-72
2022/12/29 02:15:31;;;;;;;8.90;4.50;;;;;;;1.03;73.17;100411.42;24449;1336;3026438;-63
2022/12/29 02:18:25;;;;;;;11.40;4.30;;;;;;;0.57;75.35;100415.29;24466;1333;3068394;-65
2022/12/29 02:21:25;;;;;;;10.50;4.50;;;;;;;0.67;74.78;100415.08;23808;1325;4430076;-65
2022/12/29 02:24:30;;;;;;;9.50;4.20;;;;;;;0.36;76.55;100417.09;24436;1334;3050247;-68
2022/12/29 02:27:24;;;;;;;8.80;4.00;;;;;;;0.42;76.08;100420.54;24259;1339;3068720;-66
2022/12/29 02:30:24;;;;;;;10.00;4.00;;;;;;;0.46;75.58;100411.38;24400;1333;3050547;-65
2022/12/29 02:33:28;;;;;;;12.30;4.70;;;;;;;0.37;76.19;100410.03;24511;1339;3056279;-66
2022/12/29 02:36:03;;;;;;;9.50;4.20;;;;;;;0.38;76.27;100406.24;24445;1334;3052243;-71
2022/12/29 02:38:50;;;;;;;8.40;4.60;;;;;;;0.40;76.20;100407.95;24484;1343;3053649;-67
2022/12/29 02:41:21;;;;;;;12.60;4.70;;;;;;;0.39;76.15;100408.30;24428;1333;3051527;-67
2022/12/29 02:43:53;;;;;;;9.50;4.20;;;;;;;0.16;77.54;100405.45;24517;1327;3027239;-65
2022/12/29 02:46:44;;;;;;;9.10;5.10;;;;;;;0.26;77.52;100411.28;24433;1343;3028213;-69
2022/12/29 02:49:18;;;;;;;11.60;5.80;;;;;;;0.23;77.37;100407.15;24462;1337;3068662;-66
2022/12/29 02:52:04;;;;;;;7.80;3.40;;;;;;;0.20;77.71;100410.79;24509;1333;3050415;-69
2022/12/29 02:54:42;;;;;;;13.10;4.10;;;;;;;0.95;77.00;100408.52;24404;1329;3058216;-67
2022/12/29 02:57:14;;;;;;;13.60;5.50;;;;;;;1.77;73.87;100400.48;24479;1327;3052577;-67
2022/12/29 02:59:43;;;;;;;14.20;7.00;;;;;;;1.87;72.84;100398.66;24554;1333;3026203;-62
2022/12/29 03:02:31;;;;;;;20.00;8.40;;;;;;;1.75;73.11;100397.73;24458;1326;3026030;-67
2022/12/29 03:05:49;;;;;;;19.60;8.10;;;;;;;1.43;73.23;100401.11;24489;1329;3052350;-70
2022/12/29 03:08:58;;;;;;;15.20;7.80;;;;;;;1.15;73.92;100399.27;24382;1345;3050342;-67
2022/12/29 03:17:38;;;;;;;13.30;7.20;;;;;;;0.54;76.62;100408.58;24461;1327;3056473;-66
2022/12/29 03:20:08;;;;;;;17.60;8.90;;;;;;;0.53;76.79;100409.10;24447;1335;3051994;-66
2022/12/29 03:22:41;;;;;;;17.70;8.70;;;;;;;0.35;77.83;100412.45;24505;1333;3025179;-66
2022/12/29 03:25:17;;;;;;;14.70;7.80;;;;;;;0.27;78.26;100409.55;24511;1325;3050434;-65
2022/12/29 03:27:49;;;;;;;16.90;8.10;;;;;;;0.25;78.62;100406.98;24508;1336;3026597;-67
2022/12/29 03:30:18;;;;;;;14.80;6.30;;;;;;;0.28;78.32;100407.83;24483;1336;3026364;-65
2022/12/29 03:33:02;;;;;;;13.70;6.70;;;;;;;0.38;77.71;100408.83;24405;1321;3028199;-64
2022/12/29 03:35:35;;;;;;;14.70;6.40;;;;;;;0.32;77.42;100411.59;24452;1332;3051954;-66
2022/12/29 03:38:13;;;;;;;11.70;5.60;;;;;;;0.29;78.09;100407.30;24442;1333;3026256;-68
2022/12/29 03:40:45;;;;;;;12.50;6.40;;;;;;;0.39;77.64;100406.92;24465;1327;3068339;-67
2022/12/29 03:43:14;;;;;;;13.60;6.00;;;;;;;0.26;77.99;100394.55;24512;1327;3026793;-66
2022/12/29 03:45:43;;;;;;;11.20;4.70;;;;;;;0.21;79.29;100395.09;24419;1333;3025702;-69
2022/12/29 03:48:12;;;;;;;12.00;5.70;;;;;;;1.05;77.96;100394.66;24504;1333;3028853;-68
2022/12/29 03:50:43;;;;;;;13.10;5.30;;;;;;;1.66;74.98;100394.20;24431;1339;3028842;-67
2022/12/29 03:53:12;;;;;;;14.50;6.10;;;;;;;1.93;74.66;100391.17;24514;1334;3028178;-67
2022/12/29 03:55:41;;;;;;;14.00;6.80;;;;;;;1.89;74.12;100391.38;24459;1333;3053847;-71
2022/12/29 03:58:11;;;;;;;14.80;6.70;;;;;;;1.55;74.33;100391.18;24504;1326;3025991;-66
2022/12/29 04:01:00;;;;;;;11.20;4.90;;;;;;;1.26;74.91;100393.14;24501;1340;3056974;-69
2022/12/29 04:03:30;;;;;;;13.10;6.50;;;;;;;1.25;74.76;100389.52;24489;1333;3028355;-67
2022/12/29 04:05:59;;;;;;;17.00;7.70;;;;;;;1.05;75.37;100387.25;24446;1326;3025899;-65
2022/12/29 04:08:29;;;;;;;17.30;7.70;;;;;;;0.92;75.55;100383.53;24472;1327;3056589;-67
2022/12/29 04:10:58;;;;;;;17.00;6.60;;;;;;;0.69;76.87;100387.30;24474;1334;3028681;-70
2022/12/29 04:13:27;;;;;;;12.00;5.80;;;;;;;0.63;77.70;100386.64;24549;1324;3050052;-67
2022/12/29 04:16:00;;;;;;;13.80;6.90;;;;;;;0.57;77.38;100386.49;24485;1333;3028504;-63
2022/12/29 04:18:29;;;;;;;17.30;7.10;;;;;;;0.60;77.35;100381.48;24466;1332;3026116;-62
2022/12/29 04:21:02;;;;;;;16.20;6.30;;;;;;;0.50;77.47;100385.15;24481;1334;3049580;-71
2022/12/29 04:23:34;;;;;;;14.60;6.30;;;;;;;0.30;78.73;100381.29;24445;1339;3056235;-71
2022/12/29 04:26:06;;;;;;;15.40;6.90;;;;;;;0.15;79.38;100385.82;24500;1333;3029198;-66
2022/12/29 04:28:36;;;;;;;12.60;6.30;;;;;;;0.06;79.61;100387.04;24575;1339;3026618;-68
2022/12/29 04:31:28;;;;;;;19.20;6.50;;;;;;;0.12;79.59;100387.72;24492;1326;3051637;-64
2022/12/29 04:33:57;;;;;;;15.60;7.10;;;;;;;0.18;79.17;100392.88;24456;1332;3028062;-70
2022/12/29 04:36:26;;;;;;;15.80;7.30;;;;;;;0.11;79.13;100387.89;24515;1334;3053143;-70
2022/12/29 04:38:55;;;;;;;8.30;5.20;;;;;;;0.02;80.33;100390.33;24513;1332;3025997;-69
2022/12/29 04:41:24;;;;;;;13.20;5.50;;;;;;;0.52;79.55;100393.23;24524;1326;3050839;-70
2022/12/29 04:43:53;;;;;;;11.00;6.00;;;;;;;1.26;76.71;100389.87;24495;1333;3026010;-68
2022/12/29 04:46:22;;;;;;;15.40;6.80;;;;;;;1.07;76.28;100389.65;24495;1325;3026812;-68
2022/12/29 04:49:12;;;;;;;14.70;6.90;;;;;;;1.03;77.02;100388.65;24492;1326;3051910;-66
2022/12/29 04:51:55;;;;;;;16.90;7.70;;;;;;;1.00;76.84;100393.67;24498;1334;3053051;-69
2022/12/29 04:54:25;;;;;;;19.50;9.00;;;;;;;0.62;77.53;100391.99;24558;1324;3026213;-71
2022/12/29 04:57:03;;;;;;;14.80;8.70;;;;;;;0.26;79.28;100387.84;24439;1334;3052392;-69
2022/12/29 04:59:32;;;;;;;15.80;8.20;;;;;;;0.08;80.44;100391.01;24498;1333;3026237;-63
2022/12/29 05:02:02;;;;;;;21.60;7.10;;;;;;;-0.03;81.08;100384.31;24519;1317;3028487;-68
2022/12/29 05:04:34;;;;;;;14.80;7.20;;;;;;;0.10;80.54;100387.55;24560;1333;3026063;-65
2022/12/29 05:07:03;;;;;;;17.40;7.10;;;;;;;0.10;80.15;100389.62;24539;1333;3025797;-67
2022/12/29 05:09:34;;;;;;;13.00;7.00;;;;;;;0.20;79.74;100395.63;24494;1333;3068980;-69
2022/12/29 05:12:04;;;;;;;14.40;6.70;;;;;;;0.07;80.21;100388.59;24575;1324;3025546;-65
2022/12/29 05:14:36;;;;;;;15.60;7.90;;;;;;;0.06;80.27;100387.39;24526;1333;3026998;-68
2022/12/29 05:17:06;;;;;;;16.10;7.60;;;;;;;0.13;79.55;100390.46;24493;1326;3026023;-69
2022/12/29 05:19:35;;;;;;;15.00;7.30;;;;;;;-0.03;80.28;100386.89;24446;1334;3026150;-69
2022/12/29 05:22:05;;;;;;;23.40;8.90;;;;;;;-0.05;81.33;100379.14;24445;1333;3026472;-68
2022/12/29 05:24:35;;;;;;;25.20;8.90;;;;;;;0.62;80.54;100381.80;24579;1334;3026331;-67
2022/12/29 05:27:04;;;;;;;16.00;7.90;;;;;;;1.28;77.11;100380.18;24508;1333;3025972;-69
2022/12/29 05:29:56;;;;;;;34.90;13.80;;;;;;;1.26;76.50;100384.69;24498;1334;3051179;-69
2022/12/29 05:32:25;;;;;;;23.30;11.00;;;;;;;1.13;76.54;100390.47;24455;1334;3028289;-65
2022/12/29 05:34:55;;;;;;;16.50;8.00;;;;;;;0.96;77.37;100399.91;24478;1333;3027048;-69
2022/12/29 05:37:25;;;;;;;16.50;7.30;;;;;;;0.65;77.95;100404.39;24567;1332;3026397;-68
2022/12/29 05:39:55;;;;;;;21.80;9.60;;;;;;;0.58;78.44;100410.63;24507;1326;3025742;-65
2022/12/29 05:42:25;;;;;;;22.30;10.90;;;;;;;0.41;79.15;100412.77;24409;1325;3048770;-72
2022/12/29 05:45:00;;;;;;;24.00;10.30;;;;;;;0.39;79.59;100413.65;24463;1342;3068748;-68
2022/12/29 05:48:08;;;;;;;17.90;6.40;;;;;;;0.46;78.86;100414.31;24376;1349;3050194;-66
2022/12/29 05:50:52;;;;;;;;;;;;;;;0.35;79.06;100420.21;24422;1339;3056876;-69
2022/12/29 05:53:27;;;;;;;15.70;5.50;;;;;;;0.23;79.29;100416.80;24422;1327;3052710;-64
2022/12/29 05:55:58;;;;;;;10.80;6.80;;;;;;;0.22;79.60;100426.98;24529;1333;3026513;-68
2022/12/29 05:58:27;;;;;;;14.30;6.80;;;;;;;0.38;78.85;100434.67;24439;1326;3028787;-68
2022/12/29 06:00:56;;;;;;;19.70;7.60;;;;;;;0.34;78.96;100435.56;24450;1336;3053549;-69
2022/12/29 06:03:27;;;;;;;18.80;8.00;;;;;;;0.27;79.00;100436.62;24459;1333;3027497;-67
2022/12/29 06:05:56;;;;;;;17.40;9.10;;;;;;;0.13;79.58;100441.48;24472;1332;3028491;-68
2022/12/29 06:08:26;;;;;;;13.20;7.20;;;;;;;0.17;79.92;100441.63;24504;1333;3027958;-65
2022/12/29 06:10:55;;;;;;;17.50;8.30;;;;;;;0.66;79.01;100441.80;24537;1326;3028442;-66
2022/12/29 06:13:27;;;;;;;11.80;6.20;;;;;;;1.22;76.28;100443.23;24525;1333;3051168;-68
2022/12/29 06:15:57;;;;;;;11.30;7.00;;;;;;;1.34;75.72;100443.66;24516;1326;3027005;-66
2022/12/29 06:18:28;;;;;;;14.10;6.60;;;;;;;1.32;75.60;100441.26;24550;1341;3028804;-68
2022/12/29 06:21:02;;;;;;;13.40;7.30;;;;;;;1.18;75.92;100439.29;24542;1334;3029003;-64
2022/12/29 06:23:31;;;;;;;12.60;6.90;;;;;;;0.84;76.72;100443.45;24565;1333;3026641;-66
2022/12/29 06:26:01;;;;;;;11.90;5.60;;;;;;;0.62;77.40;100439.92;24555;1338;3026215;-66
2022/12/29 06:28:30;;;;;;;11.50;5.60;;;;;;;0.52;77.81;100442.20;24520;1334;3028723;-66
2022/12/29 06:30:59;;;;;;;12.80;5.00;;;;;;;0.24;79.43;100442.65;24447;1332;3050055;-67
2022/12/29 06:33:29;;;;;;;9.80;5.20;;;;;;;0.38;79.01;100444.67;24486;1328;3027156;-68
2022/12/29 06:35:59;;;;;;;14.10;6.20;;;;;;;0.42;78.73;100441.39;24515;1333;3025999;-65
2022/12/29 06:38:28;;;;;;;13.90;7.50;;;;;;;0.34;78.96;100443.30;24530;1326;3028605;-70
2022/12/29 06:40:57;;;;;;;20.30;7.60;;;;;;;0.08;80.14;100451.65;24546;1327;3055641;-63
2022/12/29 06:43:52;;;;;;;12.50;6.60;;;;;;;0.02;80.64;100441.31;24488;1326;3051481;-63
2022/12/29 06:46:31;;;;;;;13.70;5.90;;;;;;;0.08;80.73;100430.11;24429;1333;3052744;-66
2022/12/29 06:49:00;;;;;;;16.50;6.40;;;;;;;0.08;80.64;100418.22;24623;1324;3028205;-63
2022/12/29 06:51:29;;;;;;;12.20;5.90;;;;;;;-0.00;80.50;100414.11;24522;1327;3052157;-65
2022/12/29 06:53:58;;;;;;;14.60;6.80;;;;;;;-0.02;80.84;100409.64;24634;1322;3026626;-65
2022/12/29 06:56:27;;;;;;;14.90;5.40;;;;;;;0.01;81.23;100413.06;24474;1333;3055728;-69
2022/12/29 06:58:56;;;;;;;11.90;4.90;;;;;;;0.67;79.98;100416.60;24516;1332;3026107;-70
2022/12/29 07:01:25;;;;;;;12.10;5.30;;;;;;;1.28;76.82;100427.48;24558;1337;3049469;-71
2022/12/29 07:03:55;;;;;;;11.00;5.30;;;;;;;1.43;75.85;100426.50;24575;1330;3025804;-66
2022/12/29 07:06:24;;;;;;;12.40;6.30;;;;;;;1.20;75.52;100430.13;24441;1339;3068081;-65
2022/12/29 07:08:54;;;;;;;13.20;6.70;;;;;;;0.89;76.58;100428.23;24439;1338;3028864;-66
2022/12/29 07:11:23;;;;;;;16.10;6.30;;;;;;;0.84;77.11;100422.75;24458;1341;3028898;-65
2022/12/29 07:13:56;;;;;;;10.60;5.70;;;;;;;0.70;77.40;100424.71;24467;1325;3028190;-63
2022/12/29 07:16:25;;;;;;;13.70;5.60;;;;;;;0.57;78.07;100423.58;24459;1335;3028557;-64
2022/12/29 07:18:53;;;;;;;14.80;6.20;;;;;;;0.74;77.23;100428.66;24442;1333;3025825;-64
2022/12/29 07:21:25;;;;;;;12.00;6.10;;;;;;;0.48;78.26;100432.23;24528;1326;3050530;-63
2022/12/29 07:23:54;;;;;;;12.20;6.40;;;;;;;0.51;77.97;100435.50;24467;1333;3028576;-64
2022/12/29 07:26:24;;;;;;;10.60;6.00;;;;;;;0.34;78.64;100429.70;24476;1326;3056284;-63
2022/12/29 07:28:53;;;;;;;11.20;6.40;;;;;;;0.35;78.99;100433.66;24480;1332;3028224;-62
2022/12/29 07:31:23;;;;;;;15.90;6.90;;;;;;;0.45;78.77;100432.94;24534;1323;3026386;-63
2022/12/29 07:33:52;;;;;;;17.40;7.20;;;;;;;0.58;78.17;100427.20;24564;1333;3056093;-64
2022/12/29 07:36:21;;;;;;;11.00;6.70;;;;;;;0.52;78.33;100429.11;24501;1332;3025982;-66
2022/12/29 07:38:50;;;;;;;13.00;6.40;;;;;;;0.44;78.75;100433.27;24515;1341;3050306;-64
2022/12/29 07:41:19;;;;;;;13.60;7.20;;;;;;;0.30;79.39;100430.40;24482;1326;3026067;-66
2022/12/29 07:43:48;;;;;;;11.80;6.10;;;;;;;0.29;79.48;100427.98;24461;1330;3068847;-67
2022/12/29 07:46:37;;;;;;;14.20;6.30;;;;;;;0.25;79.56;100431.44;24447;1340;3050379;-65
2022/12/29 07:49:06;;;;;;;8.50;4.80;;;;;;;0.33;79.78;100430.38;24532;1332;3026082;-69
2022/12/29 07:51:36;;;;;;;10.20;5.80;;;;;;;1.03;78.31;100438.67;24569;1333;3068964;-66
2022/12/29 07:54:05;;;;;;;11.70;6.00;;;;;;;1.48;75.59;100438.55;24554;1327;3028494;-68
2022/12/29 07:56:34;;;;;;;21.60;9.80;;;;;;;1.51;74.93;100430.41;24538;1333;3049591;-63
2022/12/29 07:59:03;;;;;;;19.20;8.30;;;;;;;1.46;75.11;100426.83;24580;1328;3028888;-66
2022/12/29 08:01:32;;;;;;;14.10;7.30;;;;;;;1.49;75.01;100428.02;24537;1325;3052190;-68
2022/12/29 08:04:02;;;;;;;19.20;8.00;;;;;;;1.32;75.29;100439.17;24565;1326;3028521;-63
2022/12/29 08:06:31;;;;;;;15.60;7.40;;;;;;;1.09;75.98;100440.39;24456;1336;3051436;-67
2022/12/29 08:09:01;;;;;;;14.50;6.90;;;;;;;1.08;76.61;100440.23;24531;1333;3028165;-63
2022/12/29 08:11:30;;;;;;;15.20;5.80;;;;;;;1.14;76.62;100438.27;24504;1333;3053187;-65
2022/12/29 08:13:59;;;;;;;14.00;6.30;;;;;;;1.28;76.34;100436.11;24601;1326;3025801;-66
2022/12/29 08:16:28;;;;;;;11.60;6.20;;;;;;;1.32;76.07;100431.77;24610;1327;3051554;-62
2022/12/29 08:18:58;;;;;;;9.70;5.60;;;;;;;1.32;75.46;100430.73;24457;1325;3028621;-69
2022/12/29 08:21:27;;;;;;;10.20;5.70;;;;;;;1.51;74.23;100424.70;24553;1332;3056091;-68
2022/12/29 08:23:56;;;;;;;12.10;5.60;;;;;;;1.59;73.79;100422.74;24499;1330;3028718;-65
2022/12/29 08:26:25;;;;;;;12.80;5.00;;;;;;;1.51;73.37;100428.35;24466;1336;3049926;-69
2022/12/29 08:28:55;;;;;;;10.00;5.30;;;;;;;1.50;73.09;100428.00;24519;1326;3026644;-67
2022/12/29 08:31:24;;;;;;;13.10;4.80;;;;;;;1.50;73.33;100428.52;24481;1333;3067968;-65
2022/12/29 08:33:53;;;;;;;10.70;5.00;;;;;;;1.65;73.45;100425.46;24493;1327;3026054;-64
2022/12/29 08:36:23;;;;;;;9.30;4.80;;;;;;;1.76;72.82;100419.15;24500;1337;3048879;-66
2022/12/29 08:38:52;;;;;;;8.30;4.10;;;;;;;1.75;72.27;100422.61;24491;1330;3026681;-65
2022/12/29 08:41:21;;;;;;;9.50;4.90;;;;;;;1.73;72.07;100417.11;24499;1339;3052561;-65
2022/12/29 08:43:50;;;;;;;15.00;5.90;;;;;;;1.65;72.04;100418.22;24442;1334;3028267;-66
2022/12/29 08:46:19;;;;;;;12.80;6.20;;;;;;;1.65;72.53;100418.38;24476;1333;3051024;-65
2022/12/29 08:48:48;;;;;;;7.00;4.60;;;;;;;1.77;72.27;100413.96;24541;1327;3026643;-64
2022/12/29 08:51:17;;;;;;;9.80;5.00;;;;;;;1.86;71.92;100405.92;24541;1339;3052316;-65
2022/12/29 08:53:46;;;;;;;7.90;4.30;;;;;;;1.79;71.69;100394.94;24483;1332;3028305;-68
2022/12/29 08:56:15;;;;;;;10.00;4.90;;;;;;;1.97;71.05;100390.44;24471;1332;3053737;-63
2022/12/29 08:58:48;;;;;;;11.00;4.90;;;;;;;1.94;70.99;100392.36;24528;1334;3028289;-65
2022/12/29 09:01:17;;;;;;;11.70;5.40;;;;;;;2.13;70.75;100392.33;24477;1336;3028820;-65
2022/12/29 09:03:46;;;;;;;12.60;5.10;;;;;;;2.18;71.04;100406.27;24557;1329;3051064;-64
2022/12/29 09:06:16;;;;;;;10.20;4.80;;;;;;;2.10;70.32;100399.79;24532;1333;3025870;-64
2022/12/29 09:08:45;;;;;;;11.30;4.90;;;;;;;2.40;70.28;100393.75;24454;1330;3026459;-64
2022/12/29 09:11:20;;;;;;;9.20;4.70;;;;;;;2.48;69.52;100392.10;24476;1337;3028588;-65
2022/12/29 09:13:50;;;;;;;10.70;4.50;;;;;;;2.52;69.63;100386.17;24541;1325;3048758;-65
2022/12/29 09:16:21;;;;;;;10.70;4.80;;;;;;;2.68;69.06;100386.48;24431;1330;3025890;-64
2022/12/29 09:18:50;;;;;;;7.80;4.50;;;;;;;2.75;68.78;100387.95;24591;1338;3027545;-65
2022/12/29 09:21:19;;;;;;;10.00;4.30;;;;;;;2.90;68.65;100393.96;24578;1332;3027491;-65
2022/12/29 09:23:48;;;;;;;15.30;5.20;;;;;;;2.89;67.92;100402.28;24542;1330;3026776;-67
2022/12/29 09:26:17;;;;;;;10.50;3.70;;;;;;;2.74;67.92;100397.64;24583;1334;3026672;-66
2022/12/29 09:28:47;;;;;;;11.90;3.90;;;;;;;2.82;67.96;100392.85;24504;1336;3056482;-64
2022/12/29 09:31:16;;;;;;;10.10;4.30;;;;;;;2.73;67.94;100390.91;24582;1336;3030077;-65
2022/12/29 09:33:45;;;;;;;10.70;4.60;;;;;;;2.81;68.22;100390.45;24540;1329;3027636;-70
2022/12/29 09:36:14;;;;;;;8.30;4.50;;;;;;;2.93;67.25;100391.31;24574;1329;3055406;-66
2022/12/29 09:38:43;;;;;;;12.10;5.60;;;;;;;2.97;67.12;100391.77;24549;1341;3025727;-65
2022/12/29 09:41:26;;;;;;;9.80;5.00;;;;;;;3.18;66.92;100397.02;24524;1333;3050147;-66
2022/12/29 09:44:13;;;;;;;9.40;4.50;;;;;;;3.18;66.97;100398.22;24572;1337;3055899;-66
2022/12/29 09:46:47;;;;;;;10.50;4.60;;;;;;;3.08;66.63;100404.42;24554;1335;3051882;-63
2022/12/29 09:49:22;;;;;;;11.40;4.50;;;;;;;3.16;66.43;100401.02;24505;1333;3053470;-67
2022/12/29 09:51:53;;;;;;;9.50;5.10;;;;;;;3.27;66.43;100399.99;24589;1331;3051757;-66
2022/12/29 09:54:45;;;;;;;8.30;4.80;;;;;;;3.34;66.33;100399.70;24493;1333;3026672;-67
2022/12/29 09:57:45;;;;;;;11.90;5.30;;;;;;;3.47;65.89;100391.86;24514;1354;3049839;-69
2022/12/29 10:00:19;;;;;;;9.70;4.70;;;;;;;3.48;66.08;100393.60;24561;1334;3067916;-70
2022/12/29 10:03:18;;;;;;;8.20;4.60;;;;;;;3.45;65.50;100392.77;24530;1338;3050283;-67
2022/12/29 10:06:15;;;;;;;6.80;3.40;;;;;;;3.36;64.44;100393.08;24491;1336;3056164;-64
2022/12/29 10:08:47;;;;;;;9.80;4.20;;;;;;;3.31;64.58;100384.70;24491;1333;3052018;-70
2022/12/29 10:11:40;;;;;;;11.80;4.90;;;;;;;3.32;65.01;100374.27;24473;1336;3029013;-68
2022/12/29 10:14:28;;;;;;;;;;;;;;;3.19;65.27;100374.33;24533;1339;3051948;-70
2022/12/29 10:17:02;;;;;;;8.80;4.90;;;;;;;3.17;65.49;100364.83;24446;1333;3051664;-68
2022/12/29 10:19:53;;;;;;;12.10;5.40;;;;;;;3.13;65.65;100366.95;24454;1336;3049403;-65
2022/12/29 10:22:43;;;;;;;15.20;6.00;;;;;;;3.21;65.49;100364.74;24497;1336;3070031;-63
2022/12/29 10:25:18;;;;;;;11.10;4.70;;;;;;;3.16;65.04;100359.80;24509;1336;3049077;-69
2022/12/29 10:27:48;;;;;;;9.90;5.00;;;;;;;3.16;66.01;100346.66;24421;1336;3058994;-65
2022/12/29 10:30:18;;;;;;;8.50;4.10;;;;;;;3.01;66.03;100343.79;24565;1333;3026141;-66
2022/12/29 10:33:02;;;;;;;8.50;4.10;;;;;;;2.95;66.10;100336.94;24458;1339;3026764;-65
2022/12/29 10:35:38;;;;;;;13.10;4.90;;;;;;;3.03;65.70;100330.08;24510;1325;3051224;-67
2022/12/29 10:38:33;;;;;;;13.60;6.90;;;;;;;2.97;66.51;100324.46;24610;1333;3051655;-70
2022/12/29 10:41:08;;;;;;;13.10;5.40;;;;;;;3.09;67.10;100317.17;24506;1336;3049228;-65
2022/12/29 10:43:47;;;;;;;10.10;5.00;;;;;;;2.97;67.89;100324.98;24507;1323;3068381;-63
2022/12/29 10:46:18;;;;;;;12.30;5.70;;;;;;;3.01;67.68;100324.03;24491;1329;3050473;-64
2022/12/29 10:48:47;;;;;;;11.50;5.30;;;;;;;3.00;67.93;100310.90;24436;1334;3029032;-67
2022/12/29 10:51:30;;;;;;;13.90;5.70;;;;;;;3.19;67.60;100308.17;24625;1323;3026513;-65
2022/12/29 10:54:25;;;;;;;8.00;4.60;;;;;;;3.37;66.83;100312.89;24511;1336;3050192;-66
2022/12/29 10:56:59;;;;;;;12.00;4.30;;;;;;;3.50;66.09;100308.33;24527;1336;3056300;-67
2022/12/29 10:59:32;;;;;;;9.60;4.40;;;;;;;3.52;65.61;100327.19;24519;1330;3051004;-67
2022/12/29 11:02:04;;;;;;;11.30;4.50;;;;;;;3.42;65.75;100304.83;24463;1334;3052020;-67
2022/12/29 11:04:36;;;;;;;8.60;4.10;;;;;;;3.36;65.70;100303.04;24468;1329;3026528;-62
2022/12/29 11:07:06;;;;;;;10.10;5.20;;;;;;;3.48;65.54;100304.38;24603;1330;3026775;-66
2022/12/29 11:09:37;;;;;;;10.90;4.20;;;;;;;3.50;65.62;100297.92;24503;1328;3028306;-68
2022/12/29 11:12:20;;;;;;;12.10;4.80;;;;;;;3.55;65.26;100300.95;24488;1334;3026591;-63
2022/12/29 11:15:07;;;;;;;12.70;6.20;;;;;;;3.47;65.45;100292.09;24569;1335;3050162;-69
2022/12/29 11:17:59;;;;;;;14.50;4.20;;;;;;;3.53;65.81;100289.91;24551;1330;3059450;-66
2022/12/29 11:20:34;;;;;;;8.30;4.00;;;;;;;3.62;66.25;100285.77;24553;1324;3051239;-71
2022/12/29 11:23:05;;;;;;;9.00;4.40;;;;;;;3.73;65.95;100286.41;24621;1330;3053237;-65
2022/12/29 11:25:34;;;;;;;13.40;6.30;;;;;;;3.72;66.00;100286.44;24501;1325;3028595;-64
2022/12/29 11:28:14;;;;;;;9.10;3.70;;;;;;;3.81;65.61;100271.53;24599;1324;3026690;-73
2022/12/29 11:30:43;;;;;;;8.00;4.20;;;;;;;3.70;66.15;100271.23;24507;1331;3053443;-63
2022/12/29 11:33:12;;;;;;;11.70;5.80;;;;;;;3.91;65.77;100271.52;24612;1330;3026617;-69
2022/12/29 11:35:42;;;;;;;14.00;5.30;;;;;;;3.94;65.60;100272.66;24537;1331;3026832;-67
2022/12/29 11:38:20;;;;;;;9.60;4.50;;;;;;;3.87;65.07;100271.59;24573;1334;3052996;-67
2022/12/29 11:40:48;;;;;;;13.20;5.70;;;;;;;4.04;65.15;100261.90;24488;1331;3051239;-66
2022/12/29 11:43:23;;;;;;;13.40;5.80;;;;;;;4.15;64.86;100256.27;24483;1338;3028537;-71
2022/12/29 11:45:52;;;;;;;13.20;5.60;;;;;;;4.29;64.86;100253.89;24509;1322;3051894;-68
2022/12/29 11:48:21;;;;;;;8.80;4.00;;;;;;;4.26;64.64;100260.20;24477;1331;3028064;-65
2022/12/29 11:50:53;;;;;;;7.00;3.70;;;;;;;4.12;65.18;100259.97;24518;1324;3052014;-67
2022/12/29 11:53:24;;;;;;;9.10;4.60;;;;;;;4.12;65.53;100263.10;24608;1324;3025892;-68
2022/12/29 11:56:01;;;;;;;9.50;4.30;;;;;;;4.17;65.81;100257.95;24513;1327;3029419;-64
2022/12/29 11:58:32;;;;;;;6.30;4.00;;;;;;;4.35;65.76;100255.49;24515;1330;3052206;-66
2022/12/29 12:01:04;;;;;;;6.60;4.00;;;;;;;4.35;65.78;100258.44;24566;1337;3025771;-63
2022/12/29 12:03:35;;;;;;;6.90;4.10;;;;;;;4.49;65.48;100262.98;24659;1326;3025721;-66
2022/12/29 12:06:05;;;;;;;9.90;4.00;;;;;;;4.52;65.29;100266.04;24498;1334;3028496;-63
2022/12/29 12:08:40;;;;;;;6.40;3.80;;;;;;;4.57;65.16;100266.78;24423;1337;3028775;-62
2022/12/29 12:11:20;;;;;;;9.30;4.40;;;;;;;4.53;65.18;100266.70;24636;1321;3051209;-66
2022/12/29 12:14:07;;;;;;;6.40;3.60;;;;;;;4.45;65.40;100262.38;24482;1333;3053476;-69
2022/12/29 12:16:54;;;;;;;6.40;3.60;;;;;;;4.61;65.20;100257.16;24460;1323;3052332;-68